ヨハネスブルグ の空港の天気 - METARとTAF

ヨハネスブルグ/O.R.タンボ国際空港 ( FAOR / JNB ) - 南アフリカ ヨハネスブルグ
飛行場実況気象(Metar)
観測時間10/16 10:00 SAST (10/16 08:00 UTC)
風向・風速東北東 3m/s
視程10km以上
天気現象
なし
気温21℃
湿度53%
気圧1030hPa
METARFAOR 160800Z 07006KT 020V120 CAVOK 21/11 Q1030 NOSIG
過去の天気等 Google飛行場航空写真 Wunderground天気予報

過去48時間のMETAR

飛行場予報(TAF)
発表時間: 10/16 06:00 SAST (10/16 04:00 UTC)
予報対象時間: 16日8時 SAST ~ 17日14時 SAST
風向・風速東北東 5m/s
視程10km以上
なし
16日11時 SAST ~ 16日13時 SAST に徐々に
風向・風速不定 2m/s
全天の4割程度の雲 雲底高度 1220m
16日15時 SAST ~ 16日18時 SAST に 確率 30% で一時的に
少しの塔状積雲 雲底高度 1370m
16日17時 SAST ~ 16日19時 SAST に徐々に
風向・風速北 6m/s
TAF FAOR 160400Z 1606/1712 07009KT CAVOK TX27/1613Z TN12/1703Z
BECMG 1609/1611 VRB03KT SCT040
PROB30 TEMPO 1613/1616 FEW045TCU
BECMG 1615/1617 35012KT